aviador You're here:

LFLL Decoded Metar

LYON ST. EXUPERY in FRANCE
Report Time2018-07-18 20:00:00
UTC Time2018-07-18 20:08:20
Flight Rules vfr VFR
Wind360° at 02 kt
W.Decomp.*RWY 36: 2.0 kt HW 0 kt LCW
Visibility9999 m
Phenomena:N/A
Clouds:N/A
Expected CloudBase > 5,600 ft AGL from Temp-Dew spread
CeilingNone
Temp25°C (ISA +12)
Dew Point11°C (42% RH)
AAT24.7°C
QNH1015 hPa
Density Alt2,238 ft
Elevation787 ft
Report Wrong Elevation
Raw Report
METAR LFLL 182000Z 36002KT CAVOK 25/11 Q1015 NOSIG=

Extra information for LFLL:More info

Metar Taf Metar & Taf Last 4 Metars F.Rules Stats Wind Profile Meteogram Temp Stats Airport Information Weather charts Add Link Nearby VenuesMetar ALERT Operation Metar Decoded Social comments